AFL273 USSS-UWKD
Flight info
| Callsign | AFL273 |
|---|---|
| Flight time | N/A |
| Altitude | 36000 |
| Route | LUNAG6J LUNAG M864 AGNOK T796 ORTIM ORTIM1R |
| Aircraft | B738/M-SDE2E3FGHIRWXY/LB1 |
Departure
| Time | 2026-04-27 16:56 |
|---|---|
| Airport | Koltsovo Airport (USSS) |
Arrival
| Time | N/A |
|---|---|
| Airport | Kazan International Airport (UWKD) |
| Time | Latitude | Longitude | Altitude | Speed | Heading |
|---|---|---|---|---|---|
| 2026-04-27 16:07 | 56.74787 | 60.79881 | 777 ft | 0 kts | 360° |
| 2026-04-27 16:44 | 56.74794 | 60.79881 | 777 ft | 0 kts | 360° |
| 2026-04-27 16:45 | 56.74799 | 60.79881 | 777 ft | 2 kts | 360° |
| 2026-04-27 16:46 | 56.74822 | 60.79882 | 777 ft | 4 kts | 3° |
| 2026-04-27 16:46 | 56.74847 | 60.79913 | 777 ft | 5 kts | 66° |
| 2026-04-27 16:46 | 56.74851 | 60.79953 | 777 ft | 2 kts | 85° |
| 2026-04-27 16:46 | 56.74852 | 60.79991 | 777 ft | 0 kts | 87° |
| 2026-04-27 16:47 | 56.74853 | 60.80001 | 777 ft | 2 kts | 87° |
| 2026-04-27 16:47 | 56.74853 | 60.80076 | 777 ft | 7 kts | 96° |
| 2026-04-27 16:47 | 56.74806 | 60.80137 | 777 ft | 11 kts | 181° |
| 2026-04-27 16:48 | 56.74718 | 60.80132 | 777 ft | 11 kts | 181° |
| 2026-04-27 16:48 | 56.74663 | 60.80228 | 777 ft | 14 kts | 91° |
| 2026-04-27 16:48 | 56.74661 | 60.80446 | 777 ft | 19 kts | 91° |
| 2026-04-27 16:49 | 56.74660 | 60.81068 | 778 ft | 29 kts | 90° |
| 2026-04-27 16:49 | 56.74660 | 60.81411 | 777 ft | 24 kts | 90° |
| 2026-04-27 16:49 | 56.74660 | 60.81735 | 777 ft | 25 kts | 90° |
| 2026-04-27 16:49 | 56.74659 | 60.82039 | 777 ft | 23 kts | 90° |
| 2026-04-27 16:50 | 56.74624 | 60.82195 | 777 ft | 10 kts | 166° |
| 2026-04-27 16:50 | 56.74601 | 60.82200 | 777 ft | 0 kts | 175° |
| 2026-04-27 16:52 | 56.74598 | 60.82201 | 777 ft | 1 kts | 175° |
| 2026-04-27 16:52 | 56.74582 | 60.82203 | 777 ft | 3 kts | 176° |
| 2026-04-27 16:52 | 56.74553 | 60.82205 | 777 ft | 5 kts | 180° |
| 2026-04-27 16:52 | 56.74500 | 60.82201 | 777 ft | 9 kts | 182° |
| 2026-04-27 16:53 | 56.74423 | 60.82195 | 777 ft | 12 kts | 184° |
| 2026-04-27 16:53 | 56.74321 | 60.82184 | 777 ft | 16 kts | 185° |
| 2026-04-27 16:53 | 56.74208 | 60.82169 | 777 ft | 15 kts | 184° |
| 2026-04-27 16:53 | 56.74107 | 60.82156 | 777 ft | 15 kts | 187° |
| 2026-04-27 16:54 | 56.74065 | 60.82003 | 777 ft | 16 kts | 275° |
| 2026-04-27 16:54 | 56.74069 | 60.81931 | 777 ft | 0 kts | 275° |
| 2026-04-27 16:55 | 56.74069 | 60.81926 | 777 ft | 3 kts | 275° |
| 2026-04-27 16:55 | 56.74075 | 60.81790 | 777 ft | 18 kts | 273° |
| 2026-04-27 16:55 | 56.74088 | 60.81456 | 778 ft | 51 kts | 274° |
| 2026-04-27 16:55 | 56.74142 | 60.80150 | 812 ft | 146 kts | 268° |
| 2026-04-27 16:56 | 56.74222 | 60.78125 | 1468 ft | 175 kts | 270° |
| 2026-04-27 16:56 | 56.74270 | 60.75541 | 1723 ft | 236 kts | 266° |
| 2026-04-27 16:56 | 56.74289 | 60.72342 | 2721 ft | 262 kts | 269° |
| 2026-04-27 16:56 | 56.74337 | 60.69203 | 4418 ft | 251 kts | 269° |
| 2026-04-27 16:57 | 56.74376 | 60.66098 | 5660 ft | 255 kts | 268° |
| 2026-04-27 16:57 | 56.74409 | 60.62925 | 6972 ft | 256 kts | 269° |
| 2026-04-27 16:57 | 56.74448 | 60.59674 | 8169 ft | 261 kts | 269° |
| 2026-04-27 16:57 | 56.74488 | 60.56403 | 9329 ft | 266 kts | 269° |
| 2026-04-27 16:58 | 56.74690 | 60.52969 | 9856 ft | 284 kts | 279° |
| 2026-04-27 16:58 | 56.75112 | 60.49337 | 10717 ft | 299 kts | 280° |
| 2026-04-27 16:58 | 56.75525 | 60.45585 | 11589 ft | 311 kts | 279° |
| 2026-04-27 16:58 | 56.75945 | 60.41696 | 12633 ft | 317 kts | 279° |
| 2026-04-27 16:59 | 56.76373 | 60.37734 | 13634 ft | 323 kts | 279° |
| 2026-04-27 16:59 | 56.76803 | 60.33738 | 14645 ft | 328 kts | 278° |
| 2026-04-27 16:59 | 56.77244 | 60.29612 | 15628 ft | 333 kts | 278° |
| 2026-04-27 16:59 | 56.77680 | 60.25518 | 16555 ft | 337 kts | 278° |
| 2026-04-27 17:00 | 56.78429 | 60.18459 | 18058 ft | 345 kts | 278° |
| 2026-04-27 17:00 | 56.79005 | 60.12688 | 19194 ft | 350 kts | 275° |
| 2026-04-27 17:00 | 56.79272 | 60.08298 | 20009 ft | 353 kts | 273° |
| 2026-04-27 17:01 | 56.79518 | 60.03843 | 20790 ft | 358 kts | 274° |
| 2026-04-27 17:01 | 56.79787 | 59.99297 | 21563 ft | 361 kts | 274° |
| 2026-04-27 17:01 | 56.80059 | 59.94744 | 22264 ft | 366 kts | 274° |
| 2026-04-27 17:01 | 56.80336 | 59.90082 | 22987 ft | 370 kts | 274° |
| 2026-04-27 17:02 | 56.80610 | 59.85465 | 23651 ft | 374 kts | 274° |
| 2026-04-27 17:02 | 56.80891 | 59.80719 | 24313 ft | 377 kts | 274° |
| 2026-04-27 17:02 | 56.81169 | 59.75993 | 24927 ft | 381 kts | 274° |
| 2026-04-27 17:02 | 56.81452 | 59.71163 | 25536 ft | 385 kts | 274° |
| 2026-04-27 17:03 | 56.81736 | 59.66296 | 26097 ft | 389 kts | 273° |
| 2026-04-27 17:03 | 56.82020 | 59.61391 | 26680 ft | 392 kts | 273° |
| 2026-04-27 17:03 | 56.82305 | 59.56420 | 27208 ft | 395 kts | 273° |
| 2026-04-27 17:03 | 56.82591 | 59.51421 | 27743 ft | 398 kts | 273° |
| 2026-04-27 17:04 | 56.82876 | 59.46392 | 28233 ft | 402 kts | 273° |
| 2026-04-27 17:04 | 56.83161 | 59.41303 | 28740 ft | 405 kts | 273° |
| 2026-04-27 17:04 | 56.83450 | 59.36145 | 29192 ft | 408 kts | 273° |
| 2026-04-27 17:04 | 56.83731 | 59.31037 | 29694 ft | 410 kts | 272° |
| 2026-04-27 17:05 | 56.84017 | 59.25862 | 30281 ft | 409 kts | 272° |
| 2026-04-27 17:05 | 56.84300 | 59.20694 | 30786 ft | 410 kts | 272° |
| 2026-04-27 17:05 | 56.84582 | 59.15492 | 31374 ft | 409 kts | 272° |
| 2026-04-27 17:05 | 56.84855 | 59.10381 | 31917 ft | 409 kts | 272° |
| 2026-04-27 17:06 | 56.85122 | 59.05182 | 32506 ft | 406 kts | 271° |
| 2026-04-27 17:06 | 56.85251 | 59.00071 | 33137 ft | 401 kts | 268° |
| 2026-04-27 17:06 | 56.85315 | 58.95068 | 33666 ft | 401 kts | 269° |
| 2026-04-27 17:06 | 56.85392 | 58.89932 | 33995 ft | 405 kts | 269° |
| 2026-04-27 17:07 | 56.85477 | 58.84805 | 34451 ft | 405 kts | 269° |
| 2026-04-27 17:07 | 56.85561 | 58.79628 | 34837 ft | 407 kts | 269° |
| 2026-04-27 17:07 | 56.85643 | 58.74493 | 35296 ft | 407 kts | 269° |
| 2026-04-27 17:07 | 56.85726 | 58.69318 | 35592 ft | 408 kts | 269° |
| 2026-04-27 17:08 | 56.85808 | 58.64160 | 35587 ft | 404 kts | 269° |
| 2026-04-27 17:08 | 56.85965 | 58.54078 | 35588 ft | 395 kts | 269° |
| 2026-04-27 17:09 | 56.86111 | 58.43976 | 35588 ft | 398 kts | 269° |
| 2026-04-27 17:09 | 56.86253 | 58.33829 | 35588 ft | 399 kts | 268° |
| 2026-04-27 17:10 | 56.86383 | 58.23743 | 35588 ft | 398 kts | 268° |
| 2026-04-27 17:10 | 56.86507 | 58.13591 | 35588 ft | 398 kts | 268° |
| 2026-04-27 17:11 | 56.86623 | 58.03474 | 35587 ft | 398 kts | 268° |
| 2026-04-27 17:11 | 56.86783 | 57.88312 | 35587 ft | 398 kts | 268° |
| 2026-04-27 17:12 | 56.86924 | 57.73212 | 35587 ft | 398 kts | 268° |
| 2026-04-27 17:13 | 56.87009 | 57.63077 | 35587 ft | 398 kts | 268° |
| 2026-04-27 17:13 | 56.87086 | 57.53003 | 35587 ft | 398 kts | 268° |
| 2026-04-27 17:14 | 56.87154 | 57.42891 | 35587 ft | 398 kts | 268° |
| 2026-04-27 17:14 | 56.87214 | 57.32763 | 35588 ft | 398 kts | 268° |
| 2026-04-27 17:15 | 56.87263 | 57.22698 | 35588 ft | 398 kts | 268° |
| 2026-04-27 17:15 | 56.87305 | 57.12560 | 35588 ft | 398 kts | 268° |